CSL Niagara — VCGJ — position and weather

sailwx.info

Track history (hours):
 
Tides and Currents Weather Stations Pressure Air Temp Water Temp Dewpoint Dewpoint Depression Visibility Wind Speed Wind Dir Waves Ship Positions

CSL Niagara

ex J. W. McGiffin

Last reported at 2015-Jul-30 03:34 UTC. Time now 2015-Aug-02 10:21 UTC.
Position N 42°35' W 079°60'.

Length 225 m; draft 8.1 m.

Type: Cargo ship. MMSI: 316029000.

Date/timePositionNaut miles runAvg speedWind from/ knotsBaromVisibWave heightAir tempDewpointWater temp
2015-Jul-30 03:34N 42°35' W 079°60'1211.7
2015-Jul-30 02:34N 42°46' W 080°04'1 0.7
2015-Jul-30 01:33N 42°47' W 080°05'0 0.0
2015-Jul-30 00:33N 42°47' W 080°05'0 0.0
2015-Jul-29 23:33N 42°47' W 080°05'0 0.0
2015-Jul-29 22:33N 42°47' W 080°05'0 0.0
2015-Jul-29 21:33N 42°47' W 080°05'0 0.0
2015-Jul-29 20:33N 42°47' W 080°05'0 0.0
2015-Jul-29 19:33N 42°47' W 080°05'0 0.0
2015-Jul-29 18:33N 42°47' W 080°05'0 0.0
2015-Jul-29 17:33N 42°47' W 080°05'3 3.4
2015-Jul-29 16:34N 42°44' W 080°06'1111.3
2015-Jul-29 15:33N 42°33' W 080°00'1110.8
2015-Jul-29 14:31N 42°26' W 080°12'1111.6
2015-Jul-29 13:33N 42°21' W 080°26'1211.5
2015-Jul-29 12:32N 42°16' W 080°40'214 6.7
2015-Jul-28 04:23N 45°22' W 083°08'1011.8
2015-Jul-28 03:34N 45°29' W 083°17'1512.1
2015-Jul-28 02:20N 45°40' W 083°31'1012.2
2015-Jul-28 01:33N 45°47' W 083°41'1211.7
2015-Jul-28 00:33N 45°56' W 083°52'10 9.9
2015-Jul-27 23:34N 46°04' W 083°60'9 9.0
2015-Jul-27 22:33N 46°11' W 084°07'7 6.7
2015-Jul-27 21:28N 46°17' W 084°13'36 6.1
2015-Jul-27 15:29N 46°43' W 084°51'2211.5
2015-Jul-27 13:33N 46°55' W 085°18'1211.8
2015-Jul-27 12:33N 46°60' W 085°34'24611.2
2015-Jul-26 14:34N 46°58' W 091°33'1211.9
2015-Jul-26 13:33N 46°53' W 091°49'1211.7
2015-Jul-26 12:33N 46°47' W 092°04'3 3.4
2015-Jul-26 11:33N 46°45' W 092°08'0 0.4
2015-Jul-26 10:34N 46°45' W 092°08'0 0.0
2015-Jul-26 09:33N 46°45' W 092°08'0 0.0
2015-Jul-26 08:33N 46°45' W 092°08'0 0.0
2015-Jul-26 07:33N 46°45' W 092°08'0 0.0
2015-Jul-26 06:33N 46°45' W 092°08'0 0.0
2015-Jul-26 05:33N 46°45' W 092°08'0 0.0
2015-Jul-26 04:33N 46°45' W 092°08'0 0.0
2015-Jul-26 03:33N 46°45' W 092°08'0 0.0
2015-Jul-26 02:33N 46°45' W 092°08'0 0.0
2015-Jul-26 01:32N 46°45' W 092°08'0 0.0
2015-Jul-26 00:32N 46°45' W 092°08'0 0.0
2015-Jul-25 23:32N 46°45' W 092°08'0 0.0
2015-Jul-25 22:33N 46°45' W 092°08'0 0.3
2015-Jul-25 21:33N 46°45' W 092°08'5 4.6
2015-Jul-25 20:33N 46°48' W 092°03'1212.0
2015-Jul-25 19:33N 46°52' W 091°46'1212.2
2015-Jul-25 18:33N 46°57' W 091°30'1212.1
2015-Jul-25 17:32N 47°01' W 091°13'1812.0
2015-Jul-25 16:03N 47°08' W 090°49'611.9
2015-Jul-25 15:34N 47°10' W 090°40'21811.9
2015-Jul-24 21:12N 46°54' W 085°22'65 8.1
2015-Jul-24 13:13N 46°14' W 084°06'8 9.4
2015-Jul-24 12:23N 46°08' W 084°01'8 9.7
2015-Jul-24 11:33N 46°02' W 083°53'269 7.4
2015-Jul-22 23:16N 42°32' W 079°59'1412.0
2015-Jul-22 22:08N 42°39' W 079°43'32 8.1
2015-Jul-22 18:14N 43°01' W 079°13'4 6.3
2015-Jul-22 17:33N 43°05' W 079°12'3 2.5
2015-Jul-22 16:33N 43°08' W 079°12'0 0.2
2015-Jul-22 15:33N 43°08' W 079°12'1 1.2
2015-Jul-22 14:34N 43°09' W 079°12'2 1.6
2015-Jul-22 13:34N 43°11' W 079°12'2 1.7
2015-Jul-22 12:34N 43°12' W 079°13'2 1.8
2015-Jul-22 11:33N 43°14' W 079°13'1110.8
2015-Jul-22 10:34N 43°24' W 079°06'1312.7
2015-Jul-22 09:34N 43°34' W 078°56'5 0.4
2015-Jul-21 22:33N 43°38' W 078°52'1312.4
2015-Jul-21 21:31N 43°28' W 079°02'1212.4
2015-Jul-21 20:34N 43°18' W 079°11'5 4.8
2015-Jul-21 19:32N 43°13' W 079°13'2 1.6
2015-Jul-21 18:33N 43°12' W 079°12'2 1.9
2015-Jul-21 17:23N 43°09' W 079°12'0 0.5
2015-Jul-21 16:32N 43°09' W 079°12'1 0.8
2015-Jul-21 15:34N 43°08' W 079°12'0 0.3
2015-Jul-21 14:32N 43°08' W 079°12'1 0.5
2015-Jul-21 13:34N 43°07' W 079°12'0 0.4
2015-Jul-21 12:33N 43°07' W 079°12'1 1.0
2015-Jul-21 11:34N 43°06' W 079°12'35 6.9
2015-Jul-21 06:28N 42°37' W 079°39'1312.3
2015-Jul-21 05:24N 42°29' W 079°54'  
Track history (hours):
 
Tides and Currents Weather Stations Pressure Air Temp Water Temp Dewpoint Dewpoint Depression Visibility Wind Speed Wind Dir Waves Ship Positions

CSL Niagara

ex J. W. McGiffin

Last reported at 2015-Jul-30 03:34 UTC. Time now 2015-Aug-02 10:21 UTC.
Position N 42°35' W 079°60'.

Length 225 m; draft 8.1 m.

Type: Cargo ship. MMSI: 316029000.

Date/timePositionNaut miles runAvg speedWind from/ knotsBaromVisibWave heightAir tempDewpointWater temp
2015-Jul-30 03:34N 42°35' W 079°60'1211.7
2015-Jul-30 02:34N 42°46' W 080°04'1 0.7
2015-Jul-30 01:33N 42°47' W 080°05'0 0.0
2015-Jul-30 00:33N 42°47' W 080°05'0 0.0
2015-Jul-29 23:33N 42°47' W 080°05'0 0.0
2015-Jul-29 22:33N 42°47' W 080°05'0 0.0
2015-Jul-29 21:33N 42°47' W 080°05'0 0.0
2015-Jul-29 20:33N 42°47' W 080°05'0 0.0
2015-Jul-29 19:33N 42°47' W 080°05'0 0.0
2015-Jul-29 18:33N 42°47' W 080°05'0 0.0
2015-Jul-29 17:33N 42°47' W 080°05'3 3.4
2015-Jul-29 16:34N 42°44' W 080°06'1111.3
2015-Jul-29 15:33N 42°33' W 080°00'1110.8
2015-Jul-29 14:31N 42°26' W 080°12'1111.6
2015-Jul-29 13:33N 42°21' W 080°26'1211.5
2015-Jul-29 12:32N 42°16' W 080°40'214 6.7
2015-Jul-28 04:23N 45°22' W 083°08'1011.8
2015-Jul-28 03:34N 45°29' W 083°17'1512.1
2015-Jul-28 02:20N 45°40' W 083°31'1012.2
2015-Jul-28 01:33N 45°47' W 083°41'1211.7
2015-Jul-28 00:33N 45°56' W 083°52'10 9.9
2015-Jul-27 23:34N 46°04' W 083°60'9 9.0
2015-Jul-27 22:33N 46°11' W 084°07'7 6.7
2015-Jul-27 21:28N 46°17' W 084°13'36 6.1
2015-Jul-27 15:29N 46°43' W 084°51'2211.5
2015-Jul-27 13:33N 46°55' W 085°18'1211.8
2015-Jul-27 12:33N 46°60' W 085°34'24611.2
2015-Jul-26 14:34N 46°58' W 091°33'1211.9
2015-Jul-26 13:33N 46°53' W 091°49'1211.7
2015-Jul-26 12:33N 46°47' W 092°04'3 3.4
2015-Jul-26 11:33N 46°45' W 092°08'0 0.4
2015-Jul-26 10:34N 46°45' W 092°08'0 0.0
2015-Jul-26 09:33N 46°45' W 092°08'0 0.0
2015-Jul-26 08:33N 46°45' W 092°08'0 0.0
2015-Jul-26 07:33N 46°45' W 092°08'0 0.0
2015-Jul-26 06:33N 46°45' W 092°08'0 0.0
2015-Jul-26 05:33N 46°45' W 092°08'0 0.0
2015-Jul-26 04:33N 46°45' W 092°08'0 0.0
2015-Jul-26 03:33N 46°45' W 092°08'0 0.0
2015-Jul-26 02:33N 46°45' W 092°08'0 0.0
2015-Jul-26 01:32N 46°45' W 092°08'0 0.0
2015-Jul-26 00:32N 46°45' W 092°08'0 0.0
2015-Jul-25 23:32N 46°45' W 092°08'0 0.0
2015-Jul-25 22:33N 46°45' W 092°08'0 0.3
2015-Jul-25 21:33N 46°45' W 092°08'5 4.6
2015-Jul-25 20:33N 46°48' W 092°03'1212.0
2015-Jul-25 19:33N 46°52' W 091°46'1212.2
2015-Jul-25 18:33N 46°57' W 091°30'1212.1
2015-Jul-25 17:32N 47°01' W 091°13'1812.0
2015-Jul-25 16:03N 47°08' W 090°49'611.9
2015-Jul-25 15:34N 47°10' W 090°40'21811.9
2015-Jul-24 21:12N 46°54' W 085°22'65 8.1
2015-Jul-24 13:13N 46°14' W 084°06'8 9.4
2015-Jul-24 12:23N 46°08' W 084°01'8 9.7
2015-Jul-24 11:33N 46°02' W 083°53'269 7.4
2015-Jul-22 23:16N 42°32' W 079°59'1412.0
2015-Jul-22 22:08N 42°39' W 079°43'32 8.1
2015-Jul-22 18:14N 43°01' W 079°13'4 6.3
2015-Jul-22 17:33N 43°05' W 079°12'3 2.5
2015-Jul-22 16:33N 43°08' W 079°12'0 0.2
2015-Jul-22 15:33N 43°08' W 079°12'1 1.2
2015-Jul-22 14:34N 43°09' W 079°12'2 1.6
2015-Jul-22 13:34N 43°11' W 079°12'2 1.7
2015-Jul-22 12:34N 43°12' W 079°13'2 1.8
2015-Jul-22 11:33N 43°14' W 079°13'1110.8
2015-Jul-22 10:34N 43°24' W 079°06'1312.7
2015-Jul-22 09:34N 43°34' W 078°56'5 0.4
2015-Jul-21 22:33N 43°38' W 078°52'1312.4
2015-Jul-21 21:31N 43°28' W 079°02'1212.4
2015-Jul-21 20:34N 43°18' W 079°11'5 4.8
2015-Jul-21 19:32N 43°13' W 079°13'2 1.6
2015-Jul-21 18:33N 43°12' W 079°12'2 1.9
2015-Jul-21 17:23N 43°09' W 079°12'0 0.5
2015-Jul-21 16:32N 43°09' W 079°12'1 0.8
2015-Jul-21 15:34N 43°08' W 079°12'0 0.3
2015-Jul-21 14:32N 43°08' W 079°12'1 0.5
2015-Jul-21 13:34N 43°07' W 079°12'0 0.4
2015-Jul-21 12:33N 43°07' W 079°12'1 1.0
2015-Jul-21 11:34N 43°06' W 079°12'35 6.9
2015-Jul-21 06:28N 42°37' W 079°39'1312.3
2015-Jul-21 05:24N 42°29' W 079°54'  

Dump ship's entire track history